createdAt,value
2023-02-13T00:01:17.852Z,18.80
2023-02-13T00:06:17.918Z,20.50
2023-02-13T00:11:17.715Z,20.30
2023-02-13T00:16:17.712Z,20.70
2023-02-13T00:21:17.643Z,18.80
2023-02-13T00:26:17.569Z,17.70
2023-02-13T00:31:17.640Z,18.40
2023-02-13T00:36:17.397Z,18.40
2023-02-13T00:41:17.375Z,18.50
2023-02-13T00:46:17.319Z,17.40
2023-02-13T00:51:17.182Z,15.10
2023-02-13T00:56:17.160Z,16.70
2023-02-13T01:01:17.118Z,17.40
2023-02-13T01:06:17.014Z,16.30
2023-02-13T01:11:16.986Z,16.90
2023-02-13T01:16:16.982Z,17.10
2023-02-13T01:21:16.821Z,17.50
2023-02-13T01:26:16.789Z,16.70
2023-02-13T01:31:16.777Z,17.60
2023-02-13T01:36:16.602Z,17.40
2023-02-13T01:41:16.567Z,17.90
2023-02-13T01:46:16.586Z,17.40
2023-02-13T01:51:16.393Z,16.40
2023-02-13T01:56:16.348Z,16.50
2023-02-13T02:01:16.336Z,17.50
2023-02-13T02:06:16.246Z,17.80
2023-02-13T02:11:16.157Z,18.60
2023-02-13T02:16:16.476Z,17.40
2023-02-13T02:21:16.008Z,17.40
2023-02-13T02:26:15.991Z,16.90
2023-02-13T02:31:16.023Z,16.40
2023-02-13T02:36:15.920Z,15.90
2023-02-13T02:41:16.021Z,16.10
2023-02-13T02:46:15.738Z,16.30
2023-02-13T02:51:15.628Z,17.30
2023-02-13T02:56:15.570Z,16.70
2023-02-13T03:01:15.513Z,17.90
2023-02-13T03:06:15.438Z,18.60
2023-02-13T03:11:15.392Z,18.70
2023-02-13T03:16:15.359Z,18.50
2023-02-13T03:21:15.360Z,19.30
2023-02-13T03:26:15.150Z,18.50
2023-02-13T03:31:15.190Z,18.80
2023-02-13T03:36:15.068Z,18.80
2023-02-13T03:41:14.964Z,18.10
2023-02-13T03:46:14.966Z,18.20
2023-02-13T03:51:14.852Z,19.20
2023-02-13T03:56:14.856Z,17.50
2023-02-13T04:01:14.717Z,18.00
2023-02-13T04:06:14.651Z,18.10
2023-02-13T04:11:14.580Z,17.20
2023-02-13T04:16:14.628Z,18.60
2023-02-13T04:21:14.429Z,17.10
2023-02-13T04:26:14.367Z,16.60
2023-02-13T04:31:14.445Z,16.40
2023-02-13T04:36:14.286Z,16.60
2023-02-13T04:41:14.144Z,16.80
2023-02-13T04:46:14.148Z,17.60
2023-02-13T04:51:14.042Z,16.50
2023-02-13T04:56:13.969Z,17.00
2023-02-13T05:01:14.023Z,16.70
2023-02-13T05:06:13.825Z,16.90
2023-02-13T05:11:13.750Z,15.20
2023-02-13T05:16:13.787Z,14.70
2023-02-13T05:21:13.647Z,15.40
2023-02-13T05:26:13.584Z,13.70
2023-02-13T05:31:13.586Z,15.20
2023-02-13T05:36:13.445Z,14.70
2023-02-13T05:41:13.378Z,14.80
2023-02-13T05:46:13.391Z,15.60
2023-02-13T05:51:13.223Z,15.70
2023-02-13T05:56:13.199Z,15.60
2023-02-13T06:01:13.162Z,14.60
2023-02-13T06:06:13.148Z,15.10
2023-02-13T06:11:13.778Z,13.90
2023-02-13T06:16:12.979Z,14.70
2023-02-13T06:21:12.862Z,14.60
2023-02-13T06:26:12.765Z,15.70
2023-02-13T06:31:12.762Z,14.90
2023-02-13T06:36:12.683Z,15.40
2023-02-13T06:41:12.567Z,14.50
2023-02-13T06:46:12.549Z,15.70
2023-02-13T06:51:12.481Z,15.20
2023-02-13T06:56:12.400Z,14.90
2023-02-13T07:01:12.356Z,15.40
2023-02-13T07:06:12.273Z,13.90
2023-02-13T07:11:12.167Z,14.10
2023-02-13T07:16:12.172Z,14.50
2023-02-13T07:21:12.065Z,15.00
2023-02-13T07:26:12.034Z,14.00
2023-02-13T07:31:12.044Z,14.20
2023-02-13T07:36:11.974Z,15.30
2023-02-13T07:41:11.834Z,15.00
2023-02-13T07:46:11.728Z,14.60
2023-02-13T07:51:11.692Z,14.90
2023-02-13T07:56:11.615Z,14.30
2023-02-13T08:01:11.540Z,14.40
2023-02-13T08:06:11.484Z,14.00
2023-02-13T08:11:12.427Z,16.00
2023-02-13T08:16:11.362Z,15.70
2023-02-13T08:21:11.269Z,14.30
2023-02-13T08:26:11.265Z,14.30
2023-02-13T08:31:11.932Z,14.50
2023-02-13T08:36:11.188Z,14.70
2023-02-13T08:41:11.015Z,13.00
2023-02-13T08:46:11.005Z,12.50
2023-02-13T08:51:11.173Z,12.60
2023-02-13T08:56:10.794Z,12.50
2023-02-13T09:01:10.819Z,13.00
2023-02-13T09:06:10.671Z,12.90
2023-02-13T09:11:10.614Z,13.50
2023-02-13T09:16:10.580Z,12.50
2023-02-13T09:21:10.546Z,12.90
2023-02-13T09:26:10.421Z,12.40
2023-02-13T09:31:10.509Z,12.20
2023-02-13T09:36:10.320Z,11.50
2023-02-13T09:41:10.242Z,11.50
2023-02-13T09:46:10.456Z,11.90
2023-02-13T09:51:10.113Z,12.10
2023-02-13T09:56:10.056Z,11.90
2023-02-13T10:01:09.982Z,11.10
2023-02-13T10:06:09.956Z,11.90
2023-02-13T10:11:09.870Z,11.80
2023-02-13T10:16:09.922Z,11.90
2023-02-13T10:21:09.752Z,11.50
2023-02-13T10:26:09.632Z,11.60
2023-02-13T10:31:09.757Z,11.70
2023-02-13T10:36:09.545Z,11.50
2023-02-13T10:41:09.518Z,13.20
2023-02-13T10:46:09.421Z,12.50
2023-02-13T10:51:09.305Z,15.30
2023-02-13T10:56:09.223Z,10.00
2023-02-13T11:01:09.174Z,10.60
2023-02-13T11:06:09.092Z,9.40
2023-02-13T11:11:09.032Z,9.30
2023-02-13T11:16:09.138Z,8.20
2023-02-13T11:21:09.190Z,7.70
2023-02-13T11:26:08.851Z,8.10
2023-02-13T11:31:08.844Z,7.80
2023-02-13T11:36:08.682Z,7.90
2023-02-13T11:41:08.608Z,8.00
2023-02-13T11:46:08.605Z,7.80
2023-02-13T11:51:08.483Z,7.70
2023-02-13T11:56:08.624Z,8.00
2023-02-13T12:01:08.454Z,7.90
2023-02-13T12:06:08.277Z,8.30
2023-02-13T12:11:08.248Z,8.50
2023-02-13T12:16:08.176Z,8.40
2023-02-13T12:21:08.132Z,8.50
2023-02-13T12:26:08.068Z,8.00
2023-02-13T12:31:08.052Z,7.90
2023-02-13T12:36:07.919Z,7.60
2023-02-13T12:41:07.846Z,7.80
2023-02-13T12:46:07.886Z,7.80
2023-02-13T12:51:07.755Z,7.40
2023-02-13T12:56:07.796Z,6.80
2023-02-13T13:01:07.625Z,7.50
2023-02-13T13:06:14.480Z,6.80
2023-02-13T13:11:08.508Z,6.20
2023-02-13T13:16:07.366Z,6.00
2023-02-13T13:21:07.421Z,5.60
2023-02-13T13:26:07.269Z,5.80
2023-02-13T13:31:07.292Z,5.70
2023-02-13T13:36:07.138Z,5.50
2023-02-13T13:41:07.036Z,5.60
2023-02-13T13:46:07.243Z,6.10
2023-02-13T13:51:06.923Z,6.00
2023-02-13T13:56:06.835Z,5.80
2023-02-13T14:01:06.890Z,5.70
2023-02-13T14:06:06.713Z,5.50
2023-02-13T14:11:06.688Z,5.60
2023-02-13T14:16:06.662Z,6.10
2023-02-13T14:21:06.629Z,5.90
2023-02-13T14:26:06.708Z,5.90
2023-02-13T14:31:06.528Z,6.60
2023-02-13T14:36:06.351Z,6.70
2023-02-13T14:41:06.254Z,6.80
2023-02-13T14:46:06.200Z,7.80
2023-02-13T14:51:06.148Z,7.30
2023-02-13T14:56:06.056Z,7.50
2023-02-13T15:01:06.090Z,7.70
2023-02-13T15:06:05.978Z,8.30
2023-02-13T15:11:05.932Z,8.00
2023-02-13T15:16:05.868Z,9.00
2023-02-13T15:21:05.762Z,9.50
2023-02-13T15:26:05.847Z,8.90
2023-02-13T15:31:05.754Z,8.70
2023-02-13T15:36:05.531Z,9.00
2023-02-13T15:41:05.539Z,9.50
2023-02-13T15:46:05.497Z,9.30
2023-02-13T15:51:05.489Z,9.70
2023-02-13T15:56:05.281Z,10.30
2023-02-13T16:01:05.223Z,10.50
2023-02-13T16:06:05.128Z,10.70
2023-02-13T16:11:05.087Z,10.50
2023-02-13T16:16:05.053Z,10.40
2023-02-13T16:21:04.967Z,11.00
2023-02-13T16:26:04.872Z,10.20
2023-02-13T16:31:04.941Z,10.40
2023-02-13T16:36:04.741Z,10.40
2023-02-13T16:41:04.682Z,11.10
2023-02-13T16:46:04.638Z,11.20
2023-02-13T16:51:04.561Z,10.80
2023-02-13T16:56:04.512Z,11.50
2023-02-13T17:01:04.537Z,12.20
2023-02-13T17:06:04.369Z,11.90
2023-02-13T17:11:04.401Z,13.30
2023-02-13T17:16:04.327Z,12.10
2023-02-13T17:21:04.162Z,12.00
2023-02-13T17:26:04.114Z,12.40
2023-02-13T17:31:04.072Z,12.30
2023-02-13T17:36:03.952Z,12.60
2023-02-13T17:41:03.896Z,12.70
2023-02-13T17:46:03.845Z,12.50
2023-02-13T17:51:03.771Z,13.30
2023-02-13T17:56:03.701Z,14.10
2023-02-13T18:01:03.733Z,14.70
2023-02-13T18:06:03.590Z,14.40
2023-02-13T18:11:03.485Z,13.60
2023-02-13T18:16:03.456Z,14.40
2023-02-13T18:21:03.386Z,13.70
2023-02-13T18:26:03.315Z,13.00
2023-02-13T18:31:03.536Z,14.40
2023-02-13T18:36:03.194Z,14.30
2023-02-13T18:41:03.174Z,14.50
2023-02-13T18:46:03.084Z,14.30
2023-02-13T18:51:02.973Z,13.70
2023-02-13T18:56:02.973Z,13.80
2023-02-13T19:01:02.824Z,13.90
2023-02-13T19:06:02.772Z,14.00
2023-02-13T19:11:02.783Z,14.40
2023-02-13T19:16:02.752Z,15.00
2023-02-13T19:21:02.573Z,14.50
2023-02-13T19:26:02.549Z,15.10
2023-02-13T19:31:02.863Z,15.90
2023-02-13T19:36:02.383Z,17.50
2023-02-13T19:41:02.365Z,16.50
2023-02-13T19:46:02.312Z,16.40
2023-02-13T19:51:02.252Z,16.30
2023-02-13T19:56:02.152Z,17.30
2023-02-13T20:01:02.065Z,16.80
2023-02-13T20:06:02.047Z,16.70
2023-02-13T20:11:02.003Z,17.80
2023-02-13T20:16:01.925Z,16.30
2023-02-13T20:21:01.847Z,16.30
2023-02-13T20:26:01.743Z,16.40
2023-02-13T20:31:02.151Z,16.60
2023-02-13T20:36:01.580Z,16.80
2023-02-13T20:41:02.886Z,17.00
2023-02-13T20:46:01.506Z,17.50
2023-02-13T20:51:01.561Z,16.60
2023-02-13T20:56:01.340Z,17.70
2023-02-13T21:01:01.870Z,17.10
2023-02-13T21:06:01.202Z,17.10
2023-02-13T21:11:01.169Z,16.10
2023-02-13T21:16:01.154Z,17.40
2023-02-13T21:21:01.259Z,16.60
2023-02-13T21:26:01.009Z,16.60
2023-02-13T21:31:01.305Z,16.50
2023-02-13T21:36:00.837Z,16.90
2023-02-13T21:41:01.049Z,17.60
2023-02-13T21:46:00.769Z,17.70
2023-02-13T21:51:00.774Z,18.30
2023-02-13T21:56:00.671Z,17.60
2023-02-13T22:01:00.958Z,18.10
2023-02-13T22:06:00.517Z,19.50
2023-02-13T22:11:00.564Z,18.30
2023-02-13T22:16:00.320Z,18.90
2023-02-13T22:21:00.588Z,17.80
2023-02-13T22:26:00.160Z,18.70
2023-02-13T22:31:00.560Z,17.50
2023-02-13T22:36:00.061Z,18.30
2023-02-13T22:41:00.335Z,17.90
2023-02-13T22:46:02.231Z,17.10
2023-02-13T22:51:00.192Z,17.30
2023-02-13T22:55:59.792Z,17.60
2023-02-13T23:01:00.075Z,17.40
2023-02-13T23:05:59.700Z,18.50
2023-02-13T23:10:59.935Z,16.30
2023-02-13T23:15:59.617Z,17.10
2023-02-13T23:20:59.673Z,16.20
2023-02-13T23:25:59.441Z,18.50
2023-02-13T23:30:59.730Z,18.10
2023-02-13T23:35:59.301Z,18.20
2023-02-13T23:40:59.539Z,17.40
2023-02-13T23:45:59.148Z,17.90
2023-02-13T23:50:59.486Z,19.10
2023-02-13T23:55:59.198Z,18.10
